Time;durP1;ratioP1;P1;durP2;ratioP2;P2;SDS_P1;SDS_P2;PMS_P1;PMS_P2;Temp;Humidity;BMP_temperature;BMP_pressure;BME280_temperature;BME280_humidity;BME280_pressure;Samples;Min_cycle;Max_cycle;Signal;HPM_P1;HPM_P2
2023/12/23 00:00:57;;;;;;;19.83;3.20;;;;;;;;;;5113176;28;20150;-84
2023/12/23 00:03:41;;;;;;;16.27;5.07;;;;;;;;;;5113271;28;20056;-83
2023/12/23 00:06:26;;;;;;;19.10;2.70;;;;;;;;;;5113810;28;20038;-84
2023/12/23 00:09:15;;;;;;;20.23;2.15;;;;;;;;;;5113501;28;20046;-84
2023/12/23 00:11:59;;;;;;;17.23;2.58;;;;;;;;;;5113074;28;20100;-84
2023/12/23 00:14:44;;;;;;;19.35;2.13;;;;;;;;;;5113108;28;20511;-83
2023/12/23 00:17:29;;;;;;;16.27;2.15;;;;;;;;;;5113348;28;20035;-84
2023/12/23 00:20:13;;;;;;;11.75;3.10;;;;;;;;;;5113456;28;20136;-84
2023/12/23 00:22:58;;;;;;;18.52;2.20;;;;;;;;;;5112744;28;20482;-84
2023/12/23 00:25:42;;;;;;;13.23;1.83;;;;;;;;;;5113160;28;20091;-84
2023/12/23 00:28:27;;;;;;;9.95;2.10;;;;;;;;;;5113176;28;20059;-83
2023/12/23 00:31:11;;;;;;;15.48;3.25;;;;;;;;;;5113066;28;20096;-84
2023/12/23 00:33:56;;;;;;;11.55;2.40;;;;;;;;;;5112783;28;20040;-84
2023/12/23 00:36:40;;;;;;;16.17;3.92;;;;;;;;;;5098598;28;20416;-84
2023/12/23 00:39:25;;;;;;;12.90;2.60;;;;;;;;;;5113155;28;20043;-85
2023/12/23 00:42:10;;;;;;;12.23;2.33;;;;;;;;;;5112659;28;20034;-84
2023/12/23 00:44:54;;;;;;;16.95;2.60;;;;;;;;;;5112539;28;20085;-84
2023/12/23 00:47:39;;;;;;;11.95;1.75;;;;;;;;;;5113003;28;20047;-84
2023/12/23 00:50:24;;;;;;;15.73;2.95;;;;;;;;;;5112501;28;20066;-85
2023/12/23 00:53:09;;;;;;;15.68;2.70;;;;;;;;;;5112311;28;20042;-84
2023/12/23 00:55:54;;;;;;;18.67;2.67;;;;;;;;;;5112062;28;20038;-85
2023/12/23 00:58:38;;;;;;;18.40;2.60;;;;;;;;;;5112547;28;20080;-84
2023/12/23 01:01:24;;;;;;;12.40;2.60;;;;;;;;;;5112558;28;20034;-84
2023/12/23 01:04:09;;;;;;;17.08;3.00;;;;;;;;;;5111918;28;20035;-84
2023/12/23 01:06:53;;;;;;;12.25;2.40;;;;;;;;;;5112054;28;20030;-84
2023/12/23 01:09:38;;;;;;;14.35;2.10;;;;;;;;;;5112554;28;20123;-84
2023/12/23 01:12:22;;;;;;;13.65;2.33;;;;;;;;;;5111317;28;20046;-84
2023/12/23 01:15:07;;;;;;;15.15;2.70;;;;;;;;;;5112023;28;20518;-84
2023/12/23 01:17:52;;;;;;;12.07;2.30;;;;;;;;;;5111625;28;20089;-84
2023/12/23 01:20:38;;;;;;;17.98;2.58;;;;;;;;;;5112387;28;20046;-84
2023/12/23 01:23:23;;;;;;;14.70;2.80;;;;;;;;;;5112369;28;20043;-84
2023/12/23 01:26:08;;;;;;;14.20;2.20;;;;;;;;;;5111601;28;20092;-84
2023/12/23 01:28:53;;;;;;;17.00;2.40;;;;;;;;;;5110693;28;20051;-84
2023/12/23 01:31:38;;;;;;;24.35;2.97;;;;;;;;;;5112572;28;20575;-84
2023/12/23 01:34:22;;;;;;;18.40;2.80;;;;;;;;;;5111523;28;20116;-84
2023/12/23 01:37:07;;;;;;;9.98;2.35;;;;;;;;;;5110562;28;20177;-84
2023/12/23 01:39:51;;;;;;;22.38;2.90;;;;;;;;;;5112153;28;20164;-85
2023/12/23 01:42:40;;;;;;;11.85;2.25;;;;;;;;;;5101492;28;20046;-84
2023/12/23 01:45:25;;;;;;;11.50;2.22;;;;;;;;;;5111625;28;20069;-85
2023/12/23 01:48:10;;;;;;;21.25;2.45;;;;;;;;;;5111277;28;20097;-84
2023/12/23 01:50:56;;;;;;;14.77;2.70;;;;;;;;;;5111746;28;20046;-83
2023/12/23 01:53:41;;;;;;;10.90;2.92;;;;;;;;;;5111734;28;20399;-85
2023/12/23 01:56:26;;;;;;;14.23;2.70;;;;;;;;;;5111980;28;20076;-85
2023/12/23 01:59:10;;;;;;;16.40;3.88;;;;;;;;;;5111208;28;20046;-85
2023/12/23 02:01:55;;;;;;;22.75;3.33;;;;;;;;;;5111813;28;20408;-85
2023/12/23 02:04:40;;;;;;;13.90;2.53;;;;;;;;;;5111849;28;20100;-85
2023/12/23 02:07:25;;;;;;;16.95;2.60;;;;;;;;;;5111718;28;20548;-85
2023/12/23 02:10:09;;;;;;;19.55;2.75;;;;;;;;;;5111222;28;20043;-85
2023/12/23 02:12:54;;;;;;;14.30;2.75;;;;;;;;;;5111648;28;20411;-85
2023/12/23 02:15:41;;;;;;;13.70;1.65;;;;;;;;;;5111639;28;20035;-84
2023/12/23 02:18:26;;;;;;;14.13;2.67;;;;;;;;;;5111737;28;20038;-84
2023/12/23 02:21:11;;;;;;;16.30;2.25;;;;;;;;;;5111049;28;20438;-84
2023/12/23 02:23:55;;;;;;;17.33;2.55;;;;;;;;;;5111741;28;20117;-85
2023/12/23 02:26:41;;;;;;;11.73;2.03;;;;;;;;;;5111694;28;20047;-84
2023/12/23 02:29:27;;;;;;;10.27;1.95;;;;;;;;;;5111273;28;20148;-84
2023/12/23 02:32:13;;;;;;;12.05;1.80;;;;;;;;;;5114303;28;20116;-84
2023/12/23 02:34:57;;;;;;;7.60;2.72;;;;;;;;;;5113782;28;20080;-84
2023/12/23 02:37:42;;;;;;;14.27;1.83;;;;;;;;;;5105411;28;20042;-84
2023/12/23 02:40:27;;;;;;;9.38;1.65;;;;;;;;;;5115067;28;20082;-84
2023/12/23 02:43:11;;;;;;;9.68;1.50;;;;;;;;;;5114876;28;20039;-84
2023/12/23 02:45:56;;;;;;;14.35;1.85;;;;;;;;;;5115354;28;20042;-84
2023/12/23 02:48:40;;;;;;;12.82;1.73;;;;;;;;;;5114969;28;20128;-84
2023/12/23 02:51:25;;;;;;;10.32;1.92;;;;;;;;;;5114743;28;20042;-83
2023/12/23 02:54:10;;;;;;;11.27;1.60;;;;;;;;;;5114453;28;20066;-83
2023/12/23 02:56:54;;;;;;;11.77;1.70;;;;;;;;;;5114991;28;20035;-83
2023/12/23 02:59:39;;;;;;;8.43;1.48;;;;;;;;;;5115107;28;20047;-83
2023/12/23 03:02:23;;;;;;;9.68;2.03;;;;;;;;;;5114351;28;20156;-84
2023/12/23 03:05:08;;;;;;;10.70;2.67;;;;;;;;;;5113482;28;20070;-83
2023/12/23 03:07:53;;;;;;;6.20;1.50;;;;;;;;;;5114920;28;20035;-83
2023/12/23 03:10:37;;;;;;;16.35;2.80;;;;;;;;;;5114696;28;20067;-83
2023/12/23 03:13:21;;;;;;;9.73;1.45;;;;;;;;;;5114302;28;20141;-84
2023/12/23 03:16:18;;;;;;;13.95;2.05;;;;;;;;;;5113394;28;20450;-83
2023/12/23 03:19:03;;;;;;;12.95;1.35;;;;;;;;;;5114502;28;20043;-84
2023/12/23 03:21:48;;;;;;;16.67;1.63;;;;;;;;;;5114740;28;20130;-84
2023/12/23 03:24:32;;;;;;;12.93;1.75;;;;;;;;;;5113462;28;20521;-84
2023/12/23 03:27:18;;;;;;;9.65;1.48;;;;;;;;;;5114076;28;20084;-84
2023/12/23 03:30:03;;;;;;;13.40;1.80;;;;;;;;;;5114386;28;20039;-84
2023/12/23 03:32:48;;;;;;;13.10;2.05;;;;;;;;;;5114291;28;20051;-84
2023/12/23 03:35:32;;;;;;;13.23;1.58;;;;;;;;;;5107440;28;20111;-83
2023/12/23 03:38:17;;;;;;;11.63;1.55;;;;;;;;;;5097400;28;20043;-83
2023/12/23 03:41:01;;;;;;;15.40;2.08;;;;;;;;;;5094903;28;20038;-83
2023/12/23 03:43:46;;;;;;;8.77;1.38;;;;;;;;;;5100110;28;20084;-84
2023/12/23 03:46:30;;;;;;;14.50;1.58;;;;;;;;;;5105890;28;20166;-83
2023/12/23 03:49:15;;;;;;;8.90;1.67;;;;;;;;;;5109539;28;20066;-83
2023/12/23 03:51:59;;;;;;;12.13;1.80;;;;;;;;;;5114090;28;20081;-84
2023/12/23 03:54:44;;;;;;;11.13;1.70;;;;;;;;;;5107630;28;20081;-84
2023/12/23 03:57:28;;;;;;;10.55;1.83;;;;;;;;;;5107083;28;20486;-83
2023/12/23 04:00:13;;;;;;;13.43;1.55;;;;;;;;;;5113607;28;20074;-83
2023/12/23 04:02:58;;;;;;;13.80;2.33;;;;;;;;;;5113647;28;20051;-83
2023/12/23 04:05:43;;;;;;;10.05;1.92;;;;;;;;;;5113794;28;20038;-83
2023/12/23 04:08:27;;;;;;;8.43;1.60;;;;;;;;;;5112049;28;20046;-83
2023/12/23 04:11:12;;;;;;;13.68;1.80;;;;;;;;;;5113465;28;20407;-83
2023/12/23 04:13:56;;;;;;;15.00;2.55;;;;;;;;;;5102019;28;20070;-83
2023/12/23 04:16:41;;;;;;;19.60;2.03;;;;;;;;;;5113406;28;20038;-83
2023/12/23 04:19:26;;;;;;;11.48;1.77;;;;;;;;;;5113042;28;20088;-83
2023/12/23 04:22:10;;;;;;;7.78;1.40;;;;;;;;;;5113580;28;20101;-83
2023/12/23 04:24:55;;;;;;;13.80;1.45;;;;;;;;;;5113166;28;20503;-83
2023/12/23 04:27:40;;;;;;;15.30;1.60;;;;;;;;;;5112847;28;20050;-83
2023/12/23 04:30:24;;;;;;;11.90;2.50;;;;;;;;;;5112543;28;20161;-83
2023/12/23 04:33:09;;;;;;;9.90;1.50;;;;;;;;;;5113264;28;20594;-83
2023/12/23 04:35:54;;;;;;;12.05;1.92;;;;;;;;;;5113208;28;20035;-82
2023/12/23 04:38:39;;;;;;;13.25;1.73;;;;;;;;;;5112452;28;20117;-83
2023/12/23 04:41:23;;;;;;;16.45;1.80;;;;;;;;;;5112597;28;20054;-83
2023/12/23 04:44:08;;;;;;;17.45;2.10;;;;;;;;;;5112867;28;20039;-83
2023/12/23 04:46:52;;;;;;;17.02;2.17;;;;;;;;;;5100025;28;20077;-83
2023/12/23 04:49:38;;;;;;;7.32;1.42;;;;;;;;;;5099665;28;20063;-82
2023/12/23 04:52:23;;;;;;;15.00;1.92;;;;;;;;;;5109227;28;20038;-83
2023/12/23 04:55:09;;;;;;;15.60;2.95;;;;;;;;;;5102691;28;20584;-82
2023/12/23 04:57:54;;;;;;;12.82;1.98;;;;;;;;;;5112617;28;20065;-83
2023/12/23 05:00:39;;;;;;;15.45;1.98;;;;;;;;;;5112236;28;20054;-83
2023/12/23 05:03:24;;;;;;;28.08;2.30;;;;;;;;;;5100332;28;20522;-83
2023/12/23 05:06:08;;;;;;;20.52;3.13;;;;;;;;;;5112441;28;20081;-82
2023/12/23 05:08:53;;;;;;;12.43;2.03;;;;;;;;;;5112506;28;20047;-82
2023/12/23 05:11:38;;;;;;;22.95;2.50;;;;;;;;;;5112036;28;20039;-83
2023/12/23 05:14:22;;;;;;;16.88;2.78;;;;;;;;;;5112138;28;20085;-83
2023/12/23 05:17:07;;;;;;;9.88;2.22;;;;;;;;;;5112440;28;20042;-83
2023/12/23 05:19:51;;;;;;;8.15;2.30;;;;;;;;;;5111507;28;20064;-82
2023/12/23 05:22:36;;;;;;;13.43;2.20;;;;;;;;;;5111847;28;20449;-83
2023/12/23 05:25:20;;;;;;;10.82;2.00;;;;;;;;;;5112343;28;20169;-83
2023/12/23 05:28:05;;;;;;;11.18;2.03;;;;;;;;;;5112040;28;20041;-83
2023/12/23 05:30:50;;;;;;;11.45;2.20;;;;;;;;;;5111966;28;20055;-83
2023/12/23 05:33:34;;;;;;;7.65;2.22;;;;;;;;;;5111519;28;20038;-82
2023/12/23 05:36:19;;;;;;;9.00;2.05;;;;;;;;;;5112251;28;20074;-83
2023/12/23 05:39:06;;;;;;;7.68;1.83;;;;;;;;;;5112200;28;20074;-83
2023/12/23 05:41:50;;;;;;;8.82;1.70;;;;;;;;;;5111483;28;20092;-82
2023/12/23 05:44:35;;;;;;;10.68;1.77;;;;;;;;;;5110552;28;20058;-83
2023/12/23 05:47:20;;;;;;;7.10;1.50;;;;;;;;;;5097634;28;20074;-83
2023/12/23 05:50:05;;;;;;;6.25;1.55;;;;;;;;;;5111731;28;20113;-83
2023/12/23 05:52:50;;;;;;;2.95;1.20;;;;;;;;;;5111323;28;20039;-83
2023/12/23 05:55:34;;;;;;;3.78;1.00;;;;;;;;;;5111248;28;20034;-82
2023/12/23 05:58:19;;;;;;;4.97;1.80;;;;;;;;;;5111944;28;20039;-83
2023/12/23 06:01:05;;;;;;;4.07;1.02;;;;;;;;;;5111682;28;20026;-83
2023/12/23 06:03:50;;;;;;;2.35;0.98;;;;;;;;;;5111377;28;20046;-83
2023/12/23 06:06:35;;;;;;;3.22;0.90;;;;;;;;;;5115394;28;20044;-83
2023/12/23 06:09:20;;;;;;;2.13;0.88;;;;;;;;;;5115873;28;20093;-83
2023/12/23 06:12:04;;;;;;;4.15;0.85;;;;;;;;;;5116013;28;20039;-84
2023/12/23 06:14:50;;;;;;;3.03;0.80;;;;;;;;;;5114740;28;20550;-81
2023/12/23 06:17:35;;;;;;;3.10;0.90;;;;;;;;;;5115312;28;20502;-83
2023/12/23 06:20:19;;;;;;;4.13;0.90;;;;;;;;;;5115846;28;20046;-83
2023/12/23 06:23:04;;;;;;;3.30;0.90;;;;;;;;;;5115564;28;20095;-83
2023/12/23 06:25:48;;;;;;;1.35;0.73;;;;;;;;;;5115249;28;20199;-83
2023/12/23 06:28:33;;;;;;;1.83;0.80;;;;;;;;;;5115122;28;20058;-82
2023/12/23 06:31:18;;;;;;;2.92;0.68;;;;;;;;;;5114944;27;20078;-83
2023/12/23 06:34:02;;;;;;;2.00;0.75;;;;;;;;;;5115513;28;20037;-84
2023/12/23 06:36:47;;;;;;;1.58;0.70;;;;;;;;;;5097418;28;20453;-83
2023/12/23 06:39:31;;;;;;;1.20;0.60;;;;;;;;;;5098805;28;20127;-83
2023/12/23 06:42:16;;;;;;;1.77;0.80;;;;;;;;;;5098955;28;20039;-83
2023/12/23 06:45:02;;;;;;;3.42;1.05;;;;;;;;;;5099926;28;20051;-83
2023/12/23 06:47:47;;;;;;;4.63;1.00;;;;;;;;;;5094662;28;20085;-82
2023/12/23 06:50:32;;;;;;;6.05;1.38;;;;;;;;;;5098485;28;20135;-83
2023/12/23 06:53:16;;;;;;;3.85;1.20;;;;;;;;;;5094673;28;20070;-83
2023/12/23 06:56:04;;;;;;;7.45;2.40;;;;;;;;;;5094255;28;20038;-82
2023/12/23 06:58:49;;;;;;;4.25;1.00;;;;;;;;;;5094177;28;20043;-84
2023/12/23 07:01:37;;;;;;;5.25;1.13;;;;;;;;;;5094653;28;20491;-83
2023/12/23 07:04:22;;;;;;;4.70;0.88;;;;;;;;;;5094466;28;20046;-88
2023/12/23 07:07:07;;;;;;;8.55;1.65;;;;;;;;;;5094968;28;20498;-82
2023/12/23 07:09:52;;;;;;;3.75;0.85;;;;;;;;;;5093952;28;20051;-82
2023/12/23 07:12:36;;;;;;;3.38;0.90;;;;;;;;;;5094436;28;20506;-81
2023/12/23 07:15:22;;;;;;;2.88;0.70;;;;;;;;;;5095030;28;20551;-84
2023/12/23 07:18:07;;;;;;;4.18;1.25;;;;;;;;;;5107221;28;20495;-82
2023/12/23 07:20:51;;;;;;;21.15;1.88;;;;;;;;;;5101465;28;20097;-86
2023/12/23 07:23:35;;;;;;;1.90;0.80;;;;;;;;;;5094140;28;20624;-82
2023/12/23 07:28:08;;;;;;;3.97;1.20;;;;;;;;;;5148147;27;20160;-83
2023/12/23 07:30:53;;;;;;;1.70;0.60;;;;;;;;;;5138586;27;20042;-84
2023/12/23 07:33:37;;;;;;;4.15;0.80;;;;;;;;;;5129006;27;20034;-84
2023/12/23 07:36:22;;;;;;;1.70;0.65;;;;;;;;;;5129305;27;20073;-84
2023/12/23 07:39:07;;;;;;;1.65;0.70;;;;;;;;;;5117957;27;20042;-83
2023/12/23 07:41:53;;;;;;;2.13;0.60;;;;;;;;;;5127367;27;20053;-83
2023/12/23 07:44:37;;;;;;;1.83;0.60;;;;;;;;;;5128300;27;20485;-83
2023/12/23 07:47:22;;;;;;;5.38;0.75;;;;;;;;;;5130980;27;20050;-83
2023/12/23 07:50:06;;;;;;;3.80;1.17;;;;;;;;;;5149285;27;20054;-84
2023/12/23 07:52:51;;;;;;;3.50;1.35;;;;;;;;;;5149684;27;20081;-83
2023/12/23 07:55:35;;;;;;;4.07;2.00;;;;;;;;;;5149704;27;20087;-84
2023/12/23 07:58:20;;;;;;;3.20;1.10;;;;;;;;;;5149968;27;20081;-87
2023/12/23 08:01:04;;;;;;;3.78;1.65;;;;;;;;;;5145840;27;20084;-85
2023/12/23 08:03:49;;;;;;;3.28;1.10;;;;;;;;;;5149346;27;20074;-83
2023/12/23 08:06:33;;;;;;;3.78;1.10;;;;;;;;;;5145264;27;20045;-82
2023/12/23 08:09:18;;;;;;;7.53;1.10;;;;;;;;;;5130435;27;20035;-83
2023/12/23 08:12:04;;;;;;;1.85;0.70;;;;;;;;;;5141278;27;20120;-81
2023/12/23 08:14:48;;;;;;;2.88;0.98;;;;;;;;;;5131430;27;20487;-82
2023/12/23 08:17:33;;;;;;;4.28;0.95;;;;;;;;;;5133137;27;20119;-81
2023/12/23 08:20:18;;;;;;;3.33;0.85;;;;;;;;;;5120288;27;20446;-81
2023/12/23 08:23:02;;;;;;;3.88;0.80;;;;;;;;;;5124551;27;20084;-79
2023/12/23 08:25:47;;;;;;;1.27;0.70;;;;;;;;;;5112970;27;20039;-78
2023/12/23 08:28:31;;;;;;;2.67;0.90;;;;;;;;;;5118535;27;20076;-79
2023/12/23 08:31:16;;;;;;;4.15;0.85;;;;;;;;;;5126955;27;20056;-79
2023/12/23 08:34:00;;;;;;;4.47;2.00;;;;;;;;;;5125941;27;20077;-80
2023/12/23 08:36:46;;;;;;;5.30;1.52;;;;;;;;;;5123603;27;20061;-79
2023/12/23 08:39:31;;;;;;;4.53;1.20;;;;;;;;;;5115316;27;20112;-78
2023/12/23 08:42:15;;;;;;;2.00;0.85;;;;;;;;;;5115750;27;20489;-80
2023/12/23 08:45:00;;;;;;;3.15;1.60;;;;;;;;;;5107423;27;20119;-80
2023/12/23 08:47:44;;;;;;;3.78;1.20;;;;;;;;;;5111431;27;20046;-81
2023/12/23 08:50:29;;;;;;;4.30;2.08;;;;;;;;;;5118165;27;20057;-83
2023/12/23 08:53:16;;;;;;;5.70;2.00;;;;;;;;;;5133269;27;20119;-80
2023/12/23 08:56:00;;;;;;;4.72;2.50;;;;;;;;;;5122495;27;20038;-80
2023/12/23 08:58:45;;;;;;;3.22;1.70;;;;;;;;;;5135193;27;20490;-80
2023/12/23 09:03:31;;;;;;;6.50;1.90;;;;;;;;;;5039606;27;2103676;-79
2023/12/23 09:06:17;;;;;;;4.47;2.03;;;;;;;;;;5087700;28;20064;-79
2023/12/23 09:09:02;;;;;;;5.25;1.30;;;;;;;;;;5087229;28;20035;-76
2023/12/23 09:11:46;;;;;;;6.82;1.30;;;;;;;;;;5083715;28;20039;-79
2023/12/23 09:14:31;;;;;;;2.65;0.80;;;;;;;;;;5086569;28;20070;-77
2023/12/23 09:17:16;;;;;;;4.20;1.08;;;;;;;;;;5084175;28;20085;-81
2023/12/23 09:20:01;;;;;;;3.33;1.42;;;;;;;;;;5077091;28;20035;-81
2023/12/23 09:22:45;;;;;;;5.75;2.25;;;;;;;;;;5088466;28;20490;-82
2023/12/23 09:25:30;;;;;;;7.30;1.77;;;;;;;;;;5077175;28;20043;-83
2023/12/23 09:28:14;;;;;;;5.13;1.65;;;;;;;;;;5080657;28;20043;-81
2023/12/23 09:30:59;;;;;;;4.10;1.42;;;;;;;;;;5078196;28;20066;-81
2023/12/23 09:33:44;;;;;;;5.93;2.00;;;;;;;;;;5086843;28;20173;-81
2023/12/23 09:36:29;;;;;;;4.10;1.55;;;;;;;;;;5086555;28;20491;-81
2023/12/23 09:39:14;;;;;;;4.15;1.50;;;;;;;;;;5086216;28;20078;-81
2023/12/23 09:42:00;;;;;;;3.22;1.67;;;;;;;;;;5077268;28;20507;-82
2023/12/23 09:44:44;;;;;;;5.85;1.80;;;;;;;;;;5059453;28;20097;-81
2023/12/23 09:47:29;;;;;;;4.97;1.73;;;;;;;;;;5087102;28;20073;-80
2023/12/23 09:50:14;;;;;;;3.58;1.85;;;;;;;;;;5087271;28;20039;-85
2023/12/23 09:53:02;;;;;;;7.30;1.80;;;;;;;;;;5088014;28;20043;-81
2023/12/23 09:55:47;;;;;;;5.75;1.80;;;;;;;;;;5087929;28;20043;-81
2023/12/23 09:58:32;;;;;;;3.60;1.77;;;;;;;;;;5088083;28;20119;-81
2023/12/23 10:01:16;;;;;;;5.07;1.80;;;;;;;;;;5086418;28;20038;-81
2023/12/23 10:04:01;;;;;;;4.38;1.42;;;;;;;;;;5087745;28;20127;-82
2023/12/23 10:06:45;;;;;;;4.05;2.08;;;;;;;;;;5087861;28;20062;-80
2023/12/23 10:09:30;;;;;;;3.10;1.60;;;;;;;;;;5087586;28;20041;-83
2023/12/23 10:12:15;;;;;;;4.53;1.63;;;;;;;;;;5070850;28;20043;-80
2023/12/23 10:14:59;;;;;;;2.72;1.20;;;;;;;;;;5073320;28;20087;-86
2023/12/23 10:17:44;;;;;;;2.80;1.10;;;;;;;;;;5073886;28;20539;-81
2023/12/23 10:20:29;;;;;;;6.75;1.20;;;;;;;;;;5073299;28;20117;-80
2023/12/23 10:23:13;;;;;;;4.65;1.20;;;;;;;;;;5073141;28;20044;-80
2023/12/23 10:25:58;;;;;;;2.92;1.10;;;;;;;;;;5073822;28;20043;-81
2023/12/23 10:28:43;;;;;;;3.38;1.20;;;;;;;;;;5074269;28;20040;-81
2023/12/23 10:31:32;;;;;;;2.85;1.30;;;;;;;;;;5069108;28;20118;-81
2023/12/23 10:34:19;;;;;;;4.30;1.70;;;;;;;;;;5073046;28;20032;-81
2023/12/23 10:37:04;;;;;;;4.65;2.03;;;;;;;;;;5073705;28;20447;-80
2023/12/23 10:39:51;;;;;;;5.15;2.95;;;;;;;;;;5053613;28;20162;-81
2023/12/23 10:42:38;;;;;;;7.45;3.05;;;;;;;;;;5073260;28;20046;-81
2023/12/23 10:45:23;;;;;;;7.18;2.72;;;;;;;;;;5072947;28;20039;-80
2023/12/23 10:48:09;;;;;;;3.65;1.77;;;;;;;;;;5073481;28;20035;-80
2023/12/23 10:50:55;;;;;;;6.70;2.63;;;;;;;;;;5073479;28;20510;-81
2023/12/23 10:53:40;;;;;;;4.47;2.20;;;;;;;;;;5073593;28;20043;-81
2023/12/23 10:56:26;;;;;;;6.00;2.90;;;;;;;;;;5072982;28;20071;-81
2023/12/23 10:59:11;;;;;;;13.48;4.15;;;;;;;;;;5072960;28;20541;-81
2023/12/23 11:01:59;;;;;;;5.43;2.72;;;;;;;;;;5073066;28;20102;-81
2023/12/23 11:04:46;;;;;;;9.00;3.10;;;;;;;;;;5073177;28;20047;-81
2023/12/23 11:07:31;;;;;;;7.03;2.88;;;;;;;;;;5072588;28;20094;-81
2023/12/23 11:10:16;;;;;;;7.05;3.22;;;;;;;;;;5072679;28;20035;-81
2023/12/23 11:13:01;;;;;;;6.82;2.65;;;;;;;;;;5073027;28;20099;-81
2023/12/23 11:15:47;;;;;;;4.65;2.33;;;;;;;;;;5073178;28;20048;-81
2023/12/23 11:18:32;;;;;;;4.75;2.13;;;;;;;;;;5072518;28;20654;-81
2023/12/23 11:21:17;;;;;;;4.50;2.33;;;;;;;;;;5072243;28;20527;-81
2023/12/23 11:24:02;;;;;;;6.63;2.30;;;;;;;;;;5072943;28;20527;-81
2023/12/23 11:26:52;;;;;;;5.70;2.17;;;;;;;;;;5057117;28;20074;-81
2023/12/23 11:29:37;;;;;;;5.60;2.95;;;;;;;;;;5072148;28;20039;-80
2023/12/23 11:32:25;;;;;;;5.88;2.28;;;;;;;;;;5072334;28;20125;-81
2023/12/23 11:35:12;;;;;;;7.55;2.42;;;;;;;;;;5072611;28;20031;-81
2023/12/23 11:37:57;;;;;;;6.03;1.92;;;;;;;;;;5072694;28;20035;-81
2023/12/23 11:40:42;;;;;;;3.97;1.50;;;;;;;;;;5072873;28;20066;-81
2023/12/23 11:43:27;;;;;;;5.78;1.88;;;;;;;;;;5071748;28;20448;-81
2023/12/23 11:46:12;;;;;;;4.20;1.65;;;;;;;;;;5072414;28;20048;-81
2023/12/23 11:48:57;;;;;;;5.65;1.65;;;;;;;;;;5072274;28;20078;-81
2023/12/23 11:51:41;;;;;;;6.55;2.05;;;;;;;;;;5072074;28;20051;-81
2023/12/23 11:54:26;;;;;;;4.28;1.75;;;;;;;;;;5075809;28;20039;-81
2023/12/23 11:57:10;;;;;;;6.93;1.92;;;;;;;;;;5077072;28;20542;-81
2023/12/23 11:59:55;;;;;;;3.95;1.75;;;;;;;;;;5055112;28;20048;-81
2023/12/23 12:02:40;;;;;;;7.85;2.08;;;;;;;;;;5070182;28;20144;-81
2023/12/23 12:05:25;;;;;;;5.43;2.20;;;;;;;;;;5070586;28;20039;-80
2023/12/23 12:08:10;;;;;;;9.52;2.20;;;;;;;;;;5070806;28;20043;-81
2023/12/23 12:10:56;;;;;;;4.63;2.17;;;;;;;;;;5071272;28;20055;-81
2023/12/23 12:13:42;;;;;;;7.88;2.28;;;;;;;;;;5060968;28;20039;-81
2023/12/23 12:16:27;;;;;;;6.43;2.55;;;;;;;;;;5044163;28;20039;-81
2023/12/23 12:19:13;;;;;;;4.60;2.55;;;;;;;;;;5071839;28;20115;-81
2023/12/23 12:21:58;;;;;;;7.45;2.97;;;;;;;;;;5071622;28;20044;-81
2023/12/23 12:24:43;;;;;;;8.50;3.20;;;;;;;;;;5071153;28;20079;-81
2023/12/23 12:27:28;;;;;;;5.20;3.05;;;;;;;;;;5062040;28;20035;-80
2023/12/23 12:30:12;;;;;;;10.45;3.70;;;;;;;;;;5071415;28;20053;-81
2023/12/23 12:33:00;;;;;;;10.50;3.40;;;;;;;;;;5071758;28;20044;-81
2023/12/23 12:35:45;;;;;;;9.68;3.70;;;;;;;;;;5071159;28;20038;-81
2023/12/23 12:38:30;;;;;;;8.90;3.85;;;;;;;;;;5070922;28;20086;-81
2023/12/23 12:41:15;;;;;;;11.32;4.10;;;;;;;;;;5071498;28;20039;-81
2023/12/23 12:44:00;;;;;;;22.75;4.70;;;;;;;;;;5071453;28;20058;-81
2023/12/23 12:46:51;;;;;;;7.88;3.83;;;;;;;;;;5053903;28;20105;-81
2023/12/23 12:49:44;;;;;;;11.13;3.60;;;;;;;;;;5067315;28;20051;-81
2023/12/23 12:52:30;;;;;;;16.73;4.60;;;;;;;;;;5059349;28;20128;-81
2023/12/23 12:55:14;;;;;;;15.40;3.78;;;;;;;;;;5062112;28;20102;-80
2023/12/23 12:57:59;;;;;;;18.45;3.40;;;;;;;;;;5068804;28;20097;-81
2023/12/23 13:00:43;;;;;;;21.25;3.38;;;;;;;;;;5069859;28;20197;-84
2023/12/23 13:03:29;;;;;;;16.33;2.95;;;;;;;;;;5068304;28;20516;-84
2023/12/23 13:06:14;;;;;;;17.75;2.42;;;;;;;;;;5057759;28;20044;-82
2023/12/23 13:08:58;;;;;;;22.27;3.20;;;;;;;;;;5071280;28;20058;-81
2023/12/23 13:11:43;;;;;;;20.85;3.90;;;;;;;;;;5065177;28;20039;-82
2023/12/23 13:14:28;;;;;;;26.33;4.88;;;;;;;;;;5061451;28;20159;-81
2023/12/23 13:17:12;;;;;;;24.90;3.60;;;;;;;;;;5071192;28;20044;-81
2023/12/23 13:19:57;;;;;;;24.65;3.97;;;;;;;;;;5070834;28;20035;-87
2023/12/23 13:22:43;;;;;;;22.33;3.85;;;;;;;;;;5064434;28;20048;-81
2023/12/23 13:25:27;;;;;;;33.78;4.75;;;;;;;;;;5066758;28;20848;-81
2023/12/23 13:28:12;;;;;;;27.48;4.10;;;;;;;;;;5066051;28;20086;-81
2023/12/23 13:30:58;;;;;;;23.85;3.85;;;;;;;;;;5066184;28;20039;-81
2023/12/23 13:33:44;;;;;;;29.15;6.00;;;;;;;;;;5074305;28;20052;-80
2023/12/23 13:36:28;;;;;;;33.58;4.35;;;;;;;;;;5064224;28;20048;-81
2023/12/23 13:39:13;;;;;;;25.83;4.20;;;;;;;;;;5044049;28;20078;-80
2023/12/23 13:41:57;;;;;;;12.77;3.10;;;;;;;;;;5069251;28;20079;-80
2023/12/23 13:44:42;;;;;;;31.23;5.78;;;;;;;;;;5070307;28;20044;-80
2023/12/23 13:47:27;;;;;;;19.30;3.15;;;;;;;;;;5070873;28;20122;-81
2023/12/23 13:50:13;;;;;;;23.98;3.80;;;;;;;;;;5074372;28;20040;-81
2023/12/23 13:52:57;;;;;;;22.15;3.75;;;;;;;;;;5074246;28;20112;-81
2023/12/23 13:55:43;;;;;;;19.02;3.35;;;;;;;;;;5073941;28;20044;-82
2023/12/23 13:58:28;;;;;;;20.70;3.88;;;;;;;;;;5074565;28;20035;-82
2023/12/23 14:01:12;;;;;;;22.73;3.80;;;;;;;;;;5074288;28;20086;-79
2023/12/23 14:03:57;;;;;;;13.82;2.67;;;;;;;;;;5074010;28;20127;-80
2023/12/23 14:06:41;;;;;;;19.77;3.75;;;;;;;;;;5073936;28;20047;-79
2023/12/23 14:09:26;;;;;;;23.90;4.63;;;;;;;;;;5059154;28;20082;-80
2023/12/23 14:12:11;;;;;;;15.32;2.97;;;;;;;;;;5074351;28;20043;-80
2023/12/23 14:14:56;;;;;;;27.20;3.65;;;;;;;;;;5058498;28;20178;-81
2023/12/23 14:17:40;;;;;;;16.95;3.45;;;;;;;;;;5073582;28;20115;-80
2023/12/23 14:20:24;;;;;;;23.52;3.38;;;;;;;;;;5074138;28;20105;-80
2023/12/23 14:23:09;;;;;;;17.45;2.88;;;;;;;;;;5073519;28;20207;-83
2023/12/23 14:25:54;;;;;;;21.70;3.80;;;;;;;;;;5063315;28;20048;-81
2023/12/23 14:28:38;;;;;;;18.02;3.53;;;;;;;;;;5060884;28;20128;-79
2023/12/23 14:31:23;;;;;;;17.73;3.75;;;;;;;;;;5070426;28;20090;-82
2023/12/23 14:34:07;;;;;;;29.70;3.80;;;;;;;;;;5070208;28;20106;-84
2023/12/23 14:36:52;;;;;;;20.60;3.70;;;;;;;;;;5072517;28;20106;-84
2023/12/23 14:39:37;;;;;;;19.95;3.45;;;;;;;;;;5073844;28;20047;-82
2023/12/23 14:42:21;;;;;;;32.78;4.40;;;;;;;;;;5073824;28;20059;-83
2023/12/23 14:45:06;;;;;;;25.85;4.45;;;;;;;;;;5073274;28;20031;-82
2023/12/23 14:47:51;;;;;;;27.95;3.97;;;;;;;;;;5066158;28;20063;-83
2023/12/23 14:50:35;;;;;;;25.65;4.28;;;;;;;;;;5058529;28;20518;-83
2023/12/23 14:53:20;;;;;;;20.80;3.38;;;;;;;;;;5073165;28;20534;-82
2023/12/23 14:56:04;;;;;;;25.50;3.88;;;;;;;;;;5072906;28;20400;-82
2023/12/23 14:58:51;;;;;;;16.13;3.35;;;;;;;;;;5073069;28;20082;-82
2023/12/23 15:01:36;;;;;;;23.65;4.05;;;;;;;;;;5073397;28;20064;-82
2023/12/23 15:04:21;;;;;;;19.15;3.20;;;;;;;;;;5073093;28;20109;-83
2023/12/23 15:07:05;;;;;;;27.92;4.68;;;;;;;;;;5072821;28;20566;-82
2023/12/23 15:09:50;;;;;;;27.92;4.05;;;;;;;;;;5072585;28;20400;-81
2023/12/23 15:12:35;;;;;;;18.65;3.38;;;;;;;;;;5057953;28;20192;-82
2023/12/23 15:15:20;;;;;;;24.25;3.58;;;;;;;;;;5057313;28;20082;-83
2023/12/23 15:18:04;;;;;;;11.25;2.15;;;;;;;;;;5065097;28;20043;-83
2023/12/23 15:20:49;;;;;;;24.75;4.70;;;;;;;;;;5061728;28;20524;-82
2023/12/23 15:23:34;;;;;;;25.27;3.33;;;;;;;;;;5062934;28;20051;-81
2023/12/23 15:26:18;;;;;;;24.63;3.72;;;;;;;;;;5066592;28;20052;-82
2023/12/23 15:29:04;;;;;;;25.00;3.65;;;;;;;;;;5054525;28;20040;-82
2023/12/23 15:31:49;;;;;;;22.70;3.90;;;;;;;;;;5052903;28;20243;-79
2023/12/23 15:34:34;;;;;;;17.92;2.65;;;;;;;;;;5049699;28;20914;-84
2023/12/23 15:37:18;;;;;;;17.58;3.40;;;;;;;;;;5062256;28;20097;-81
2023/12/23 15:40:05;;;;;;;18.42;2.80;;;;;;;;;;5064668;28;20050;-81
2023/12/23 15:42:49;;;;;;;13.90;3.13;;;;;;;;;;5055698;28;20091;-81
2023/12/23 15:45:34;;;;;;;22.65;4.65;;;;;;;;;;5060546;28;20155;-80
2023/12/23 15:48:19;;;;;;;22.50;3.97;;;;;;;;;;5065024;28;20043;-81
2023/12/23 15:51:03;;;;;;;20.25;3.70;;;;;;;;;;5035031;28;20035;-81
2023/12/23 15:53:48;;;;;;;14.00;3.30;;;;;;;;;;5064658;28;20098;-79
2023/12/23 15:56:37;;;;;;;17.17;2.78;;;;;;;;;;5065240;28;20499;-82
2023/12/23 15:59:21;;;;;;;15.50;4.18;;;;;;;;;;5064118;28;20557;-81
2023/12/23 16:02:06;;;;;;;21.13;4.28;;;;;;;;;;5063996;28;20563;-80
2023/12/23 16:04:50;;;;;;;17.90;3.80;;;;;;;;;;5064205;28;20055;-80
2023/12/23 16:07:35;;;;;;;17.58;3.90;;;;;;;;;;5064545;28;20087;-82
2023/12/23 16:10:20;;;;;;;21.38;3.55;;;;;;;;;;5064357;28;20432;-81
2023/12/23 16:13:05;;;;;;;18.60;3.65;;;;;;;;;;5063526;28;20047;-82
2023/12/23 16:15:50;;;;;;;12.63;2.95;;;;;;;;;;5064000;28;20106;-81
2023/12/23 16:18:35;;;;;;;21.23;4.65;;;;;;;;;;5064495;28;20079;-81
2023/12/23 16:21:19;;;;;;;24.42;4.10;;;;;;;;;;5064326;28;20466;-83
2023/12/23 16:24:04;;;;;;;22.38;4.75;;;;;;;;;;5063842;28;20867;-80